Time;durP1;ratioP1;P1;durP2;ratioP2;P2;SDS_P1;SDS_P2;PMS_P1;PMS_P2;Temp;Humidity;BMP_temperature;BMP_pressure;BME280_temperature;BME280_humidity;BME280_pressure;Samples;Min_cycle;Max_cycle;Signal;HPM_P1;HPM_P2
2022/05/29 00:01:09;;;;;;;50.80;48.83;;;10.70;99.90;;;;;;5019187;28;20221;-69
2022/05/29 00:03:35;;;;;;;52.27;49.97;;;10.70;99.90;;;;;;5026831;28;20203;-69
2022/05/29 00:06:04;;;;;;;55.83;53.57;;;10.70;99.90;;;;;;5025145;28;20195;-69
2022/05/29 00:08:33;;;;;;;106.60;101.63;;;10.70;99.90;;;;;;5031897;28;20183;-69
2022/05/29 00:11:00;;;;;;;240.77;230.70;;;10.70;99.90;;;;;;5031924;28;20178;-69
2022/05/29 00:13:27;;;;;;;234.80;224.97;;;10.80;99.90;;;;;;5047368;28;20218;-69
2022/05/29 00:15:53;;;;;;;224.40;215.43;;;10.80;99.90;;;;;;5027382;28;20190;-69
2022/05/29 00:18:19;;;;;;;215.33;206.90;;;10.80;99.90;;;;;;5032221;28;20182;-69
2022/05/29 00:20:52;;;;;;;211.23;202.37;;;10.70;99.90;;;;;;5027702;28;20734;-69
2022/05/29 00:23:18;;;;;;;222.20;213.27;;;10.70;99.90;;;;;;5017126;28;20256;-69
2022/05/29 00:25:46;;;;;;;226.57;217.97;;;10.60;99.90;;;;;;5024754;28;20194;-69
2022/05/29 00:28:12;;;;;;;205.90;197.57;;;10.70;99.90;;;;;;5015492;28;20194;-69
2022/05/29 00:30:40;;;;;;;203.80;196.47;;;10.70;99.90;;;;;;5016484;28;20199;-69
2022/05/29 00:33:06;;;;;;;205.47;197.90;;;10.70;99.90;;;;;;5029618;28;20189;-69
2022/05/29 00:35:32;;;;;;;199.73;192.30;;;10.60;99.90;;;;;;5028625;28;20186;-69
2022/05/29 00:37:59;;;;;;;205.50;197.90;;;10.60;99.90;;;;;;5024854;28;20187;-70
2022/05/29 00:40:28;;;;;;;200.40;192.93;;;10.70;99.90;;;;;;5010638;28;20184;-70
2022/05/29 00:42:54;;;;;;;202.53;194.60;;;10.70;99.90;;;;;;5021863;28;20312;-69
2022/05/29 00:45:21;;;;;;;193.70;186.53;;;10.80;99.90;;;;;;5030114;28;20269;-69
2022/05/29 00:47:47;;;;;;;187.97;180.57;;;10.80;99.90;;;;;;5025797;28;20186;-69
2022/05/29 00:50:18;;;;;;;191.77;184.57;;;10.80;99.90;;;;;;5027789;28;20183;-69
2022/05/29 00:52:44;;;;;;;188.03;180.83;;;10.90;99.90;;;;;;5026612;28;20190;-69
2022/05/29 00:55:19;;;;;;;180.90;173.60;;;10.90;99.90;;;;;;5003222;28;20190;-69
2022/05/29 00:57:59;;;;;;;180.07;173.57;;;11.10;99.90;;;;;;5011675;28;20179;-69
2022/05/29 01:00:27;;;;;;;186.20;179.40;;;11.20;99.90;;;;;;5029122;28;20209;-69
2022/05/29 01:02:55;;;;;;;185.57;178.87;;;10.90;99.90;;;;;;5030456;28;20183;-69
2022/05/29 01:05:23;;;;;;;184.37;177.67;;;11.10;99.90;;;;;;5029121;28;20216;-69
2022/05/29 01:07:56;;;;;;;178.13;171.30;;;11.00;99.90;;;;;;5020376;28;20245;-68
2022/05/29 01:10:40;;;;;;;172.70;165.67;;;11.00;99.90;;;;;;5033850;28;20249;-68
2022/05/29 01:13:39;;;;;;;175.20;168.83;;;11.00;99.90;;;;;;5022714;28;20183;-68
2022/05/29 01:16:15;;;;;;;166.47;160.40;;;11.00;99.90;;;;;;5016061;28;20179;-69
2022/05/29 01:19:09;;;;;;;169.27;162.70;;;11.10;99.90;;;;;;5035879;28;20287;-68
2022/05/29 01:21:56;;;;;;;152.23;146.50;;;11.10;99.90;;;;;;5023859;28;20205;-68
2022/05/29 01:24:47;;;;;;;147.30;141.83;;;11.10;99.90;;;;;;5031348;28;20179;-69
2022/05/29 01:27:42;;;;;;;146.27;141.10;;;11.10;99.90;;;;;;5032930;28;20203;-69
2022/05/29 01:30:21;;;;;;;143.30;138.10;;;11.10;99.90;;;;;;5030311;28;20188;-69
2022/05/29 01:33:08;;;;;;;148.00;142.43;;;11.20;99.90;;;;;;5030964;28;20269;-68
2022/05/29 01:35:37;;;;;;;149.70;144.30;;;11.20;99.90;;;;;;5033561;28;20178;-69
2022/05/29 01:38:16;;;;;;;141.63;136.53;;;11.20;99.90;;;;;;5033706;28;20274;-68
2022/05/29 01:40:48;;;;;;;145.93;140.43;;;11.30;99.90;;;;;;5025889;28;20234;-68
2022/05/29 01:43:54;;;;;;;148.87;143.57;;;11.20;99.90;;;;;;5029987;28;20202;-68
2022/05/29 01:46:32;;;;;;;160.67;154.73;;;11.20;99.90;;;;;;5016088;28;20183;-68
2022/05/29 01:49:14;;;;;;;160.97;154.70;;;11.10;99.90;;;;;;5040493;28;20629;-68
2022/05/29 01:52:04;;;;;;;167.03;161.13;;;11.00;99.90;;;;;;5025588;28;20183;-68
2022/05/29 01:54:32;;;;;;;176.77;170.37;;;10.90;99.90;;;;;;5031863;28;20543;-69
2022/05/29 01:57:13;;;;;;;191.43;184.53;;;10.90;99.90;;;;;;5026166;28;20217;-69
2022/05/29 01:59:57;;;;;;;191.90;184.80;;;10.90;99.90;;;;;;5033462;28;20194;-69
2022/05/29 02:02:49;;;;;;;187.33;180.60;;;10.80;99.90;;;;;;5042797;28;20571;-69
2022/05/29 02:05:27;;;;;;;187.37;180.27;;;10.80;99.90;;;;;;5027113;28;20226;-69
2022/05/29 02:08:01;;;;;;;195.37;188.17;;;10.70;99.90;;;;;;5025818;28;20179;-68
2022/05/29 02:10:37;;;;;;;188.70;181.93;;;10.60;99.90;;;;;;5031535;28;20277;-68
2022/05/29 02:13:06;;;;;;;186.70;179.63;;;10.70;99.90;;;;;;5013874;28;20249;-69
2022/05/29 02:15:43;;;;;;;179.30;172.73;;;10.80;99.90;;;;;;5031740;28;20178;-68
2022/05/29 02:18:20;;;;;;;132.93;128.30;;;10.70;99.90;;;;;;5017782;28;20750;-68
2022/05/29 02:20:50;;;;;;;108.10;104.13;;;10.80;99.90;;;;;;5033572;28;20202;-68
2022/05/29 02:23:32;;;;;;;104.97;100.93;;;10.90;99.90;;;;;;5032689;28;20653;-68
2022/05/29 02:26:00;;;;;;;110.67;106.17;;;10.90;99.90;;;;;;5032193;28;20341;-69
2022/05/29 02:28:34;;;;;;;111.80;107.83;;;10.90;99.90;;;;;;5027457;28;20218;-68
2022/05/29 02:31:25;;;;;;;117.03;112.60;;;10.90;99.90;;;;;;5028763;28;20191;-68
2022/05/29 02:34:03;;;;;;;125.07;120.67;;;11.00;99.90;;;;;;5027163;28;20179;-68
2022/05/29 02:37:12;;;;;;;123.87;119.23;;;10.90;99.90;;;;;;5014464;28;20463;-69
2022/05/29 02:39:43;;;;;;;115.13;110.77;;;10.80;99.90;;;;;;5007804;28;20250;-68
2022/05/29 02:42:29;;;;;;;119.27;114.37;;;10.80;99.90;;;;;;5027573;28;20261;-68
2022/05/29 02:45:27;;;;;;;109.17;105.07;;;10.80;99.90;;;;;;5019080;28;20187;-69
2022/05/29 02:47:56;;;;;;;107.50;103.47;;;10.90;99.90;;;;;;5023619;28;20174;-68
2022/05/29 02:50:39;;;;;;;99.43;95.93;;;11.00;99.90;;;;;;5029054;28;20639;-68
2022/05/29 02:53:10;;;;;;;104.20;100.47;;;11.00;99.90;;;;;;5048673;28;20325;-68
2022/05/29 02:55:37;;;;;;;104.33;100.60;;;11.00;99.90;;;;;;5032767;28;20194;-69
2022/05/29 02:58:08;;;;;;;91.53;88.10;;;11.10;99.90;;;;;;5032320;28;20273;-68
2022/05/29 03:00:56;;;;;;;98.60;94.57;;;11.10;99.90;;;;;;5033205;28;20217;-68
2022/05/29 03:03:50;;;;;;;89.73;86.43;;;11.10;99.90;;;;;;5015805;28;20179;-70
2022/05/29 03:06:28;;;;;;;86.77;83.53;;;11.20;99.90;;;;;;4992023;28;20282;-69
2022/05/29 03:09:19;;;;;;;87.80;84.73;;;11.20;99.90;;;;;;5032641;28;20206;-69
2022/05/29 03:11:46;;;;;;;90.93;87.37;;;11.00;99.90;;;;;;5026029;28;20195;-68
2022/05/29 03:14:49;;;;;;;91.43;87.97;;;11.10;99.90;;;;;;5031831;28;20186;-69
2022/05/29 03:17:37;;;;;;;82.63;79.50;;;11.10;99.90;;;;;;5015055;28;20187;-68
2022/05/29 03:20:15;;;;;;;82.77;79.63;;;11.10;99.90;;;;;;5027796;28;20190;-69
2022/05/29 03:23:10;;;;;;;84.17;81.27;;;11.10;99.90;;;;;;5032491;28;20557;-69
2022/05/29 03:25:43;;;;;;;80.57;77.67;;;11.10;99.90;;;;;;5023441;28;20189;-69
2022/05/29 03:28:29;;;;;;;74.93;72.07;;;11.20;99.90;;;;;;5028011;28;20210;-68
2022/05/29 03:30:59;;;;;;;69.50;67.20;;;11.20;99.90;;;;;;5017374;28;20296;-68
2022/05/29 03:33:25;;;;;;;71.07;68.53;;;11.20;99.90;;;;;;5028156;28;20178;-69
2022/05/29 03:35:54;;;;;;;67.63;65.23;;;11.20;99.90;;;;;;5036892;28;20193;-68
2022/05/29 03:38:21;;;;;;;71.17;68.77;;;11.20;99.90;;;;;;5028121;28;20182;-68
2022/05/29 03:40:49;;;;;;;78.97;76.23;;;11.30;99.90;;;;;;5023342;28;20233;-68
2022/05/29 03:43:15;;;;;;;77.13;74.53;;;11.30;99.90;;;;;;5019463;28;20714;-68
2022/05/29 03:45:41;;;;;;;75.33;72.60;;;11.20;99.90;;;;;;5030925;28;20186;-69
2022/05/29 03:48:07;;;;;;;76.87;73.87;;;11.20;99.90;;;;;;5014590;28;20248;-68
2022/05/29 03:50:34;;;;;;;78.00;74.90;;;11.10;99.90;;;;;;5031435;28;20191;-69
2022/05/29 03:53:02;;;;;;;78.77;75.73;;;11.20;99.90;;;;;;5020629;28;20182;-69
2022/05/29 03:55:29;;;;;;;77.10;74.07;;;11.20;99.90;;;;;;5031441;28;20667;-69
2022/05/29 03:57:55;;;;;;;77.07;74.17;;;11.30;99.90;;;;;;5044377;28;20186;-68
2022/05/29 04:00:23;;;;;;;63.90;61.30;;;11.40;99.90;;;;;;5026223;28;20203;-68
2022/05/29 04:02:48;;;;;;;68.13;65.47;;;11.40;99.90;;;;;;5026327;28;20662;-69
2022/05/29 04:05:19;;;;;;;69.37;66.83;;;11.60;99.90;;;;;;5031385;28;20324;-68
2022/05/29 04:13:16;;;;;;;68.10;65.60;;;11.60;99.90;;;;;;5028736;28;20237;-69
2022/05/29 04:15:45;;;;;;;66.20;63.87;;;11.60;99.90;;;;;;5029552;28;20215;-68
2022/05/29 04:18:16;;;;;;;70.37;67.67;;;11.80;99.90;;;;;;5030602;28;20277;-68
2022/05/29 04:20:43;;;;;;;66.10;63.60;;;11.70;99.90;;;;;;5027451;28;20603;-68
2022/05/29 04:23:08;;;;;;;65.03;62.63;;;11.70;99.90;;;;;;5036318;28;20199;-68
2022/05/29 04:25:34;;;;;;;72.28;69.55;;;11.70;99.90;;;;;;5016559;28;20201;-68
2022/05/29 04:28:01;;;;;;;72.57;69.63;;;11.70;99.90;;;;;;5031705;28;20194;-69
2022/05/29 04:30:28;;;;;;;73.63;70.60;;;11.70;99.90;;;;;;5030993;28;20594;-68
2022/05/29 04:32:59;;;;;;;68.23;65.77;;;11.60;99.90;;;;;;5030801;28;20191;-68
2022/05/29 04:35:37;;;;;;;69.00;66.50;;;11.60;99.90;;;;;;5030209;28;20197;-69
2022/05/29 04:38:03;;;;;;;67.67;65.27;;;11.60;99.90;;;;;;5022113;28;20262;-68
2022/05/29 04:40:31;;;;;;;62.70;60.40;;;11.70;99.90;;;;;;5046686;28;20277;-69
2022/05/29 04:42:56;;;;;;;63.03;60.73;;;11.70;99.90;;;;;;5028187;28;20245;-68
2022/05/29 04:45:22;;;;;;;65.25;62.95;;;11.80;99.90;;;;;;5035354;28;20190;-70
2022/05/29 04:47:48;;;;;;;69.00;66.60;;;11.80;99.90;;;;;;5028053;28;20253;-69
2022/05/29 04:50:14;;;;;;;64.32;62.08;;;11.80;99.90;;;;;;5033844;28;20282;-68
2022/05/29 04:52:40;;;;;;;69.78;67.38;;;11.80;99.90;;;;;;5040227;28;20195;-68
2022/05/29 04:55:06;;;;;;;65.95;63.70;;;11.80;99.90;;;;;;5044504;28;20253;-69
2022/05/29 04:57:32;;;;;;;63.80;60.13;;;11.70;99.90;;;;;;5034052;28;20644;-68
2022/05/29 04:59:58;;;;;;;65.05;62.85;;;11.80;99.90;;;;;;5027722;28;20191;-69
2022/05/29 05:02:25;;;;;;;67.50;64.88;;;11.80;99.90;;;;;;5035998;28;20211;-68
2022/05/29 05:04:50;;;;;;;69.25;66.65;;;11.80;99.90;;;;;;5021826;28;20187;-68
2022/05/29 05:07:16;;;;;;;67.37;64.97;;;11.70;99.90;;;;;;5013921;28;20699;-69
2022/05/29 05:09:42;;;;;;;73.87;70.70;;;11.70;99.90;;;;;;5035332;28;20648;-68
2022/05/29 05:12:08;;;;;;;68.03;65.77;;;11.80;99.90;;;;;;5033189;28;20233;-68
2022/05/29 05:14:35;;;;;;;63.67;61.57;;;11.80;99.90;;;;;;5034598;28;20671;-68
2022/05/29 05:17:00;;;;;;;63.13;60.53;;;11.80;99.90;;;;;;5034274;28;20301;-69
2022/05/29 05:19:26;;;;;;;59.50;57.40;;;11.90;99.90;;;;;;5024559;28;20210;-69
2022/05/29 05:21:52;;;;;;;58.67;56.47;;;11.90;99.90;;;;;;5032936;28;20213;-68
2022/05/29 05:24:18;;;;;;;62.20;60.10;;;11.90;99.90;;;;;;5027376;28;20192;-68
2022/05/29 05:26:45;;;;;;;59.80;57.80;;;11.90;99.90;;;;;;5020481;28;20199;-68
2022/05/29 05:29:12;;;;;;;57.03;54.92;;;11.90;99.90;;;;;;5021145;28;20184;-68
2022/05/29 05:31:37;;;;;;;58.05;55.90;;;11.90;99.90;;;;;;5031870;28;20206;-68
2022/05/29 05:34:03;;;;;;;60.28;58.15;;;12.10;99.90;;;;;;5028624;28;20182;-68
2022/05/29 05:36:29;;;;;;;58.90;57.00;;;12.10;99.90;;;;;;5033203;28;20191;-68
2022/05/29 05:38:55;;;;;;;64.53;62.40;;;12.30;99.90;;;;;;5028900;28;20537;-69
2022/05/29 05:41:21;;;;;;;68.35;65.95;;;12.50;99.90;;;;;;5028668;28;20214;-68
2022/05/29 05:43:47;;;;;;;64.30;61.97;;;12.50;99.90;;;;;;5027375;28;20198;-68
2022/05/29 05:46:16;;;;;;;67.40;64.93;;;12.40;99.90;;;;;;5031144;28;20191;-69
2022/05/29 05:48:43;;;;;;;61.20;58.90;;;12.50;99.90;;;;;;5021937;28;20179;-68
2022/05/29 05:51:09;;;;;;;62.58;60.38;;;12.50;99.90;;;;;;5013983;28;20252;-68
2022/05/29 05:53:37;;;;;;;70.82;68.28;;;12.50;99.90;;;;;;5032840;28;20190;-68
2022/05/29 05:56:12;;;;;;;68.32;65.75;;;12.50;99.90;;;;;;5034464;28;20190;-68
2022/05/29 05:58:39;;;;;;;62.03;59.72;;;12.70;99.90;;;;;;5032275;28;20660;-68
2022/05/29 06:01:09;;;;;;;64.47;61.95;;;12.80;99.90;;;;;;5032432;28;20356;-69
2022/05/29 06:03:36;;;;;;;66.95;64.53;;;12.90;99.90;;;;;;5020579;28;20277;-68
2022/05/29 06:06:02;;;;;;;60.78;58.10;;;12.80;99.90;;;;;;5033531;28;20642;-69
2022/05/29 06:08:27;;;;;;;60.85;58.30;;;12.80;99.90;;;;;;5033164;28;20264;-68
2022/05/29 06:10:54;;;;;;;60.53;57.85;;;12.90;99.90;;;;;;5031897;28;20224;-68
2022/05/29 06:13:19;;;;;;;59.00;56.75;;;12.90;99.90;;;;;;5024034;28;20201;-68
2022/05/29 06:15:46;;;;;;;58.10;55.88;;;12.90;99.90;;;;;;5033073;28;20632;-68
2022/05/29 06:18:13;;;;;;;57.85;55.80;;;12.90;99.90;;;;;;5032862;28;20183;-69
2022/05/29 06:20:39;;;;;;;60.20;58.05;;;13.00;99.90;;;;;;5032389;28;20269;-68
2022/05/29 06:23:05;;;;;;;60.17;57.65;;;13.20;99.90;;;;;;5031042;28;20187;-68
2022/05/29 06:25:30;;;;;;;62.75;60.45;;;13.30;99.90;;;;;;5032849;28;20193;-69
2022/05/29 06:27:56;;;;;;;69.45;66.65;;;13.50;99.90;;;;;;5025410;28;20282;-68
2022/05/29 06:30:22;;;;;;;68.88;66.47;;;13.60;99.90;;;;;;5029725;28;20193;-69
2022/05/29 06:32:48;;;;;;;66.65;64.35;;;13.60;99.90;;;;;;5008671;28;20212;-69
2022/05/29 06:35:15;;;;;;;68.93;66.18;;;13.90;99.90;;;;;;5022072;28;20562;-68
2022/05/29 06:37:42;;;;;;;67.05;64.35;;;14.10;99.90;;;;;;5032143;28;20643;-68
2022/05/29 06:40:10;;;;;;;71.53;69.05;;;14.30;99.90;;;;;;5032837;28;20317;-68
2022/05/29 06:42:35;;;;;;;72.93;70.10;;;14.40;99.90;;;;;;5031375;28;20202;-68
2022/05/29 06:45:03;;;;;;;72.32;69.80;;;14.50;99.90;;;;;;5031795;28;20240;-69
2022/05/29 06:47:29;;;;;;;74.50;71.70;;;14.50;99.90;;;;;;5032603;28;20182;-69
2022/05/29 06:49:54;;;;;;;64.80;62.50;;;14.50;99.90;;;;;;5031547;28;20761;-69
2022/05/29 06:52:20;;;;;;;65.47;63.08;;;14.50;99.90;;;;;;5022775;28;20246;-68
2022/05/29 06:54:46;;;;;;;79.95;77.15;;;14.90;99.90;;;;;;5027511;28;20228;-68
2022/05/29 06:57:36;;;;;;;48.15;46.10;;;15.70;99.90;;;;;;5031359;28;20183;-68
2022/05/29 07:08:06;;;;;;;70.60;67.88;;;18.30;99.90;;;;;;5021902;28;20707;-68
2022/05/29 07:10:33;;;;;;;84.63;81.72;;;17.80;99.90;;;;;;5030680;28;20187;-69
2022/05/29 07:13:00;;;;;;;91.13;87.93;;;17.40;99.90;;;;;;5026914;28;20325;-69
2022/05/29 07:15:26;;;;;;;91.65;88.25;;;17.20;99.90;;;;;;5031408;28;20197;-69
2022/05/29 07:17:52;;;;;;;86.97;83.78;;;16.80;99.90;;;;;;5046453;28;20179;-68
2022/05/29 07:20:17;;;;;;;73.97;71.25;;;16.50;99.90;;;;;;5031032;28;20187;-68
2022/05/29 07:22:43;;;;;;;64.43;62.20;;;16.00;99.90;;;;;;5031635;28;20294;-68
2022/05/29 07:25:11;;;;;;;63.53;61.33;;;15.50;99.90;;;;;;5031094;28;20644;-68
2022/05/29 07:27:38;;;;;;;65.47;63.00;;;15.10;99.90;;;;;;5030549;28;20274;-69
2022/05/29 07:30:05;;;;;;;58.20;56.15;;;14.70;99.90;;;;;;5032691;28;20191;-68
2022/05/29 07:32:31;;;;;;;53.38;51.47;;;14.60;99.90;;;;;;5027092;28;20214;-68
2022/05/29 07:35:01;;;;;;;50.60;48.58;;;14.60;99.90;;;;;;5004718;28;20186;-68
2022/05/29 07:37:26;;;;;;;45.83;44.28;;;14.30;99.90;;;;;;5017555;28;20180;-69
2022/05/29 07:39:53;;;;;;;53.42;51.42;;;14.10;99.90;;;;;;5027891;28;20203;-68
2022/05/29 07:45:06;;;;;;;85.15;81.93;;;14.10;99.90;;;;;;5029363;28;20198;-68
2022/05/29 07:47:43;;;;;;;95.38;92.05;;;14.10;99.90;;;;;;5021313;28;20217;-68
2022/05/29 07:50:15;;;;;;;105.60;101.63;;;14.40;99.90;;;;;;5031401;28;20208;-68
2022/05/29 07:52:41;;;;;;;104.53;100.88;;;14.50;99.90;;;;;;5031338;28;20179;-68
2022/05/29 07:55:08;;;;;;;113.63;109.55;;;14.60;99.90;;;;;;5030335;28;20190;-68
2022/05/29 07:57:34;;;;;;;121.20;116.75;;;14.70;99.90;;;;;;5024441;28;20245;-68
2022/05/29 08:00:00;;;;;;;123.78;119.55;;;14.80;99.90;;;;;;5041736;28;20187;-68
2022/05/29 08:02:26;;;;;;;122.38;118.20;;;15.00;99.90;;;;;;5020131;28;20732;-68
2022/05/29 08:04:52;;;;;;;128.10;123.63;;;14.90;99.90;;;;;;5031392;28;20187;-68
2022/05/29 08:07:20;;;;;;;129.70;125.10;;;14.80;99.90;;;;;;5029006;28;20229;-68
2022/05/29 08:09:46;;;;;;;122.53;118.32;;;14.70;99.90;;;;;;5031162;28;20194;-68
2022/05/29 08:12:11;;;;;;;120.80;116.50;;;14.60;99.90;;;;;;5027869;28;20195;-68
2022/05/29 08:14:37;;;;;;;112.03;108.07;;;14.70;99.90;;;;;;5029608;28;20191;-68
2022/05/29 08:17:03;;;;;;;115.60;111.20;;;15.00;99.90;;;;;;5017790;28;20664;-68
2022/05/29 08:19:33;;;;;;;117.05;113.05;;;15.50;99.90;;;;;;5040853;28;20202;-68
2022/05/29 08:21:59;;;;;;;125.28;120.68;;;15.80;99.90;;;;;;5033252;28;20202;-68
2022/05/29 08:32:37;;;;;;;80.65;77.90;;;16.00;99.90;;;;;;5030643;28;20252;-69
2022/05/29 08:35:03;;;;;;;54.85;53.05;;;16.40;99.90;;;;;;5035062;28;20183;-68
2022/05/29 08:37:29;;;;;;;42.78;41.38;;;17.10;99.90;;;;;;5035659;28;20243;-68
2022/05/29 08:39:55;;;;;;;40.67;39.17;;;17.90;99.90;;;;;;5033595;28;20711;-68
2022/05/29 08:42:21;;;;;;;49.88;48.28;;;18.70;99.90;;;;;;5034165;28;20241;-68
2022/05/29 08:44:50;;;;;;;68.45;65.93;;;19.70;99.90;;;;;;5024139;28;20226;-68
2022/05/29 08:47:27;;;;;;;97.20;93.97;;;20.20;99.90;;;;;;5026502;28;20210;-69
2022/05/29 08:49:52;;;;;;;123.30;119.07;;;20.80;99.90;;;;;;5031998;28;20181;-69
2022/05/29 08:52:24;;;;;;;231.13;223.07;;;22.30;99.90;;;;;;5033366;28;20202;-69
2022/05/29 08:55:06;;;;;;;323.30;311.83;;;23.60;99.90;;;;;;5021775;28;20596;-69
2022/05/29 08:57:55;;;;;;;356.52;343.77;;;23.20;99.90;;;;;;5029934;28;20183;-69
2022/05/29 09:00:21;;;;;;;348.55;336.00;;;21.40;99.90;;;;;;5021649;28;20191;-69
2022/05/29 09:02:53;;;;;;;281.88;272.00;;;20.10;99.90;;;;;;5027197;28;20225;-68
2022/05/29 09:05:48;;;;;;;205.88;198.75;;;19.40;99.90;;;;;;5032353;28;20178;-68
2022/05/29 09:08:24;;;;;;;174.68;168.50;;;18.50;99.90;;;;;;5023500;28;20613;-68
2022/05/29 09:10:58;;;;;;;152.80;147.32;;;18.20;99.90;;;;;;5031595;28;20178;-69
2022/05/29 09:13:42;;;;;;;126.05;121.78;;;17.60;99.90;;;;;;5030959;28;20178;-70
2022/05/29 09:16:15;;;;;;;116.13;112.13;;;17.50;99.90;;;;;;5028717;28;20266;-68
2022/05/29 09:18:47;;;;;;;105.97;102.28;;;17.80;99.90;;;;;;5029297;28;20187;-69
2022/05/29 09:21:18;;;;;;;113.78;109.72;;;18.10;99.90;;;;;;5032975;28;20289;-69
2022/05/29 09:24:09;;;;;;;108.50;104.68;;;18.60;99.90;;;;;;5030252;28;20560;-69
2022/05/29 09:26:39;;;;;;;117.60;113.47;;;18.50;99.90;;;;;;5028820;28;20186;-69
2022/05/29 09:29:07;;;;;;;138.73;133.93;;;18.00;99.90;;;;;;5026445;28;20220;-69
2022/05/29 09:31:33;;;;;;;113.60;109.65;;;17.40;99.90;;;;;;5034956;28;20233;-69
2022/05/29 09:33:59;;;;;;;121.32;117.20;;;16.90;99.90;;;;;;5033104;28;20241;-69
2022/05/29 09:36:53;;;;;;;115.25;111.10;;;16.20;99.90;;;;;;5033279;28;20190;-69
2022/05/29 09:39:33;;;;;;;78.60;75.80;;;15.60;99.90;;;;;;5031459;28;20167;-69
2022/05/29 09:42:08;;;;;;;55.33;53.15;;;15.10;99.90;;;;;;5033474;28;20293;-69
2022/05/29 09:44:34;;;;;;;64.05;61.85;;;14.60;99.90;;;;;;5034471;28;20190;-69
2022/05/29 09:50:07;;;;;;;90.32;86.43;;;14.00;99.90;;;;;;5033450;28;20194;-66
2022/05/29 09:52:40;;;;;;;92.45;89.30;;;13.60;99.90;;;;;;5033450;28;20678;-67
2022/05/29 09:55:31;;;;;;;99.03;95.65;;;13.30;99.90;;;;;;5034138;28;20182;-67
2022/05/29 09:58:01;;;;;;;69.97;67.57;;;12.80;99.90;;;;;;5021855;28;20278;-68
2022/05/29 10:00:37;;;;;;;74.90;72.40;;;12.50;99.90;;;;;;5017638;28;20194;-67
2022/05/29 10:03:09;;;;;;;110.97;107.00;;;12.40;99.90;;;;;;5033939;28;20198;-69
2022/05/29 10:05:38;;;;;;;113.60;109.80;;;12.60;99.90;;;;;;5028948;28;20171;-69
2022/05/29 10:08:31;;;;;;;123.93;119.63;;;12.80;99.90;;;;;;5031901;28;20253;-68
2022/05/29 10:11:21;;;;;;;120.75;116.53;;;12.70;99.90;;;;;;5023507;28;20653;-68
2022/05/29 10:13:48;;;;;;;121.97;117.88;;;12.80;99.90;;;;;;5017287;28;20241;-69
2022/05/29 10:16:33;;;;;;;132.45;127.90;;;12.80;99.90;;;;;;5031773;28;20183;-70
2022/05/29 10:18:59;;;;;;;134.27;129.68;;;13.00;99.90;;;;;;5020231;28;20191;-70
2022/05/29 10:21:29;;;;;;;134.43;129.70;;;13.30;99.90;;;;;;5024733;28;20214;-69
2022/05/29 10:24:14;;;;;;;140.05;135.20;;;13.50;99.90;;;;;;5028238;28;20186;-70
2022/05/29 10:26:46;;;;;;;137.30;132.63;;;13.60;99.90;;;;;;5031379;28;20194;-70
2022/05/29 10:29:30;;;;;;;142.63;137.75;;;13.60;99.90;;;;;;5029595;28;20253;-69
2022/05/29 10:31:58;;;;;;;142.82;137.93;;;13.30;99.90;;;;;;5030406;28;20186;-69
2022/05/29 10:34:29;;;;;;;135.68;131.02;;;13.40;99.90;;;;;;5016691;28;20699;-69
2022/05/29 10:36:56;;;;;;;131.45;126.95;;;13.50;99.90;;;;;;5022278;28;20508;-70
2022/05/29 10:39:31;;;;;;;131.45;126.93;;;13.80;99.90;;;;;;5029328;28;20194;-70
2022/05/29 10:41:58;;;;;;;139.60;134.77;;;14.30;99.90;;;;;;5031931;28;20397;-70
2022/05/29 10:44:41;;;;;;;146.00;140.90;;;14.80;99.90;;;;;;5020822;28;20190;-70
2022/05/29 10:47:36;;;;;;;163.25;157.32;;;15.30;99.90;;;;;;5022385;28;20706;-70
2022/05/29 10:50:23;;;;;;;178.40;171.98;;;15.90;99.90;;;;;;5024823;28;20190;-71
2022/05/29 10:53:32;;;;;;;193.55;186.88;;;16.30;99.90;;;;;;5026097;28;20209;-70
2022/05/29 10:56:17;;;;;;;185.90;179.38;;;16.60;99.90;;;;;;5004222;28;20549;-71
2022/05/29 10:59:04;;;;;;;172.40;166.40;;;16.90;99.90;;;;;;5024541;28;20187;-70
2022/05/29 11:04:14;;;;;;;123.70;119.50;;;17.10;99.90;;;;;;5024989;28;20675;-70
2022/05/29 11:07:04;;;;;;;122.95;118.60;;;16.80;99.90;;;;;;5030852;28;20187;-70
2022/05/29 11:09:41;;;;;;;103.15;99.22;;;16.70;99.90;;;;;;5025236;28;20182;-70
2022/05/29 11:12:13;;;;;;;98.72;95.22;;;16.50;99.90;;;;;;5020463;28;20282;-70
2022/05/29 11:14:57;;;;;;;105.18;101.60;;;16.40;99.90;;;;;;5022708;28;20323;-70
2022/05/29 11:17:39;;;;;;;89.70;86.70;;;16.20;99.90;;;;;;5033010;28;20588;-70
2022/05/29 11:20:31;;;;;;;105.03;101.32;;;16.20;99.90;;;;;;5032472;28;20639;-69
2022/05/29 11:23:34;;;;;;;100.90;97.25;;;16.60;99.90;;;;;;5027774;28;20223;-70
2022/05/29 11:26:13;;;;;;;108.03;104.30;;;16.60;99.90;;;;;;5015485;28;20182;-70
2022/05/29 11:28:57;;;;;;;96.40;92.40;;;17.10;99.90;;;;;;5013364;28;20217;-70
2022/05/29 11:31:44;;;;;;;90.15;87.10;;;17.30;99.90;;;;;;5013707;28;20195;-71
2022/05/29 11:34:26;;;;;;;79.70;76.82;;;17.60;99.90;;;;;;5027395;28;20244;-69
2022/05/29 11:37:05;;;;;;;54.53;52.63;;;17.90;99.90;;;;;;5026601;28;20232;-70
2022/05/29 11:39:47;;;;;;;64.28;61.92;;;17.80;99.90;;;;;;5030243;28;20532;-70
2022/05/29 11:42:22;;;;;;;67.05;64.78;;;17.60;99.90;;;;;;5023323;28;20213;-70
2022/05/29 11:45:14;;;;;;;68.07;65.80;;;17.30;99.90;;;;;;5031843;28;20528;-70
2022/05/29 11:53:34;;;;;;;72.28;69.88;;;16.00;99.90;;;;;;5015724;28;20233;-69
2022/05/29 11:56:20;;;;;;;71.15;68.63;;;15.80;99.90;;;;;;5030248;28;20244;-69
2022/05/29 11:58:53;;;;;;;73.40;70.93;;;15.80;99.90;;;;;;5025139;28;20610;-69
2022/05/29 12:01:26;;;;;;;96.70;93.38;;;15.80;99.90;;;;;;5027733;28;20631;-69
2022/05/29 12:04:06;;;;;;;106.00;102.25;;;15.90;99.90;;;;;;5026238;28;20194;-69
2022/05/29 12:06:38;;;;;;;129.02;124.57;;;15.90;99.90;;;;;;5020257;28;20171;-69
2022/05/29 12:09:22;;;;;;;130.00;125.53;;;15.80;99.90;;;;;;5027185;28;20182;-69
2022/05/29 12:11:55;;;;;;;156.93;151.02;;;15.70;99.90;;;;;;5034459;28;20222;-70
2022/05/29 12:14:52;;;;;;;175.63;169.55;;;15.80;99.90;;;;;;5022964;28;20524;-70
2022/05/29 12:17:35;;;;;;;181.75;175.48;;;16.00;99.90;;;;;;5019288;28;20191;-69
2022/05/29 12:20:19;;;;;;;183.00;176.63;;;15.90;99.90;;;;;;5030200;28;20317;-69
2022/05/29 12:22:52;;;;;;;173.18;167.15;;;16.10;99.90;;;;;;5031831;28;20256;-69
2022/05/29 12:25:37;;;;;;;166.27;160.35;;;16.30;99.90;;;;;;5031666;28;20190;-69
2022/05/29 12:28:08;;;;;;;152.27;146.75;;;16.50;99.90;;;;;;5029746;28;20177;-69
2022/05/29 12:30:39;;;;;;;172.98;166.98;;;16.30;99.90;;;;;;5026111;28;20194;-69
2022/05/29 12:33:20;;;;;;;156.05;150.63;;;16.60;99.90;;;;;;5025920;28;20179;-70
2022/05/29 12:36:21;;;;;;;152.23;146.70;;;16.70;99.90;;;;;;5030032;28;20174;-69
2022/05/29 12:39:16;;;;;;;127.85;123.47;;;16.90;99.90;;;;;;5030430;28;21226;-69
2022/05/29 12:42:05;;;;;;;96.57;93.28;;;17.30;99.90;;;;;;5027213;28;20219;-69
2022/05/29 12:44:48;;;;;;;97.35;94.03;;;17.30;99.90;;;;;;5016419;28;20207;-70
2022/05/29 12:47:29;;;;;;;79.18;76.53;;;17.50;99.90;;;;;;5012925;28;20266;-70
2022/05/29 12:50:15;;;;;;;62.53;60.33;;;18.00;99.90;;;;;;5040868;28;20523;-70
2022/05/29 12:52:55;;;;;;;56.30;54.38;;;18.40;99.90;;;;;;5025946;28;20179;-69
2022/05/29 12:55:48;;;;;;;47.55;45.92;;;18.50;99.90;;;;;;5021456;28;20174;-70
2022/05/29 12:58:29;;;;;;;40.67;39.28;;;18.50;99.90;;;;;;5023489;28;20178;-69
2022/05/29 13:01:13;;;;;;;43.42;41.92;;;18.40;99.90;;;;;;5026301;28;20194;-70
2022/05/29 13:03:51;;;;;;;46.63;45.08;;;18.40;99.90;;;;;;5026551;28;20196;-69
2022/05/29 13:07:02;;;;;;;46.78;45.17;;;18.80;99.90;;;;;;5030630;28;20643;-70
2022/05/29 13:09:55;;;;;;;58.47;56.33;;;18.70;99.90;;;;;;5030477;28;20178;-69
2022/05/29 13:12:35;;;;;;;58.08;56.13;;;18.60;99.90;;;;;;5031805;28;20253;-69
2022/05/29 13:15:05;;;;;;;63.75;61.45;;;18.20;99.90;;;;;;5031768;28;20175;-70
2022/05/29 13:17:34;;;;;;;75.95;73.35;;;17.90;99.90;;;;;;5025133;28;20171;-71
2022/05/29 13:20:02;;;;;;;57.75;55.78;;;16.70;99.90;;;;;;5028900;28;20179;-71
2022/05/29 13:22:47;;;;;;;79.18;76.50;;;15.80;99.90;;;;;;5029718;28;20685;-70
2022/05/29 13:25:14;;;;;;;82.45;79.65;;;15.10;99.90;;;;;;5022981;28;20174;-73
2022/05/29 13:27:40;;;;;;;128.88;124.40;;;14.90;99.90;;;;;;5028703;28;20182;-71